createdAt,value
2019-05-13T00:02:04.667Z,102460.47
2019-05-13T00:04:33.907Z,102459.14
2019-05-13T00:07:04.636Z,102461.03
2019-05-13T00:09:33.961Z,102459.15
2019-05-13T00:12:04.984Z,102454.41
2019-05-13T00:14:34.483Z,102457.14
2019-05-13T00:17:04.291Z,102459.41
2019-05-13T00:19:33.913Z,102458.38
2019-05-13T00:22:03.769Z,102456.84
2019-05-13T00:24:33.898Z,102458.55
2019-05-13T00:27:03.951Z,102459.58
2019-05-13T00:29:34.038Z,102457.61
2019-05-13T00:32:04.773Z,102459.32
2019-05-13T00:34:33.794Z,102451.72
2019-05-13T00:37:08.950Z,102452.14
2019-05-13T00:39:33.714Z,102454.96
2019-05-13T00:42:03.973Z,102449.28
2019-05-13T00:44:33.779Z,102451.45
2019-05-13T00:47:04.391Z,102450.22
2019-05-13T00:49:34.488Z,102454.35
2019-05-13T00:52:04.464Z,102463.07
2019-05-13T00:54:34.182Z,102459.09
2019-05-13T00:57:04.163Z,102451.72
2019-05-13T00:59:33.932Z,102453.67
2019-05-13T01:02:03.621Z,102450.60
2019-05-13T01:04:33.956Z,102446.41
2019-05-13T01:07:04.420Z,102451.95
2019-05-13T01:09:34.253Z,102446.00
2019-05-13T01:12:04.370Z,102445.62
2019-05-13T01:14:34.213Z,102445.47
2019-05-13T01:17:03.822Z,102445.94
2019-05-13T01:19:34.267Z,102451.79
2019-05-13T01:22:03.544Z,102451.24
2019-05-13T01:24:33.894Z,102451.11
2019-05-13T01:27:03.862Z,102450.91
2019-05-13T01:29:34.401Z,102453.83
2019-05-13T01:32:04.539Z,102455.44
2019-05-13T01:34:33.918Z,102457.13
2019-05-13T01:37:04.290Z,102463.38
2019-05-13T01:39:35.045Z,102457.72
2019-05-13T01:42:03.708Z,102455.92
2019-05-13T01:44:33.568Z,102459.42
2019-05-13T01:47:04.509Z,102461.52
2019-05-13T01:49:33.723Z,102456.05
2019-05-13T01:52:03.789Z,102456.61
2019-05-13T01:54:33.939Z,102461.88
2019-05-13T01:57:04.476Z,102458.41
2019-05-13T01:59:34.724Z,102463.00
2019-05-13T02:02:03.571Z,102454.30
2019-05-13T02:04:33.599Z,102456.39
2019-05-13T02:07:04.148Z,102465.88
2019-05-13T02:09:33.691Z,102460.56
2019-05-13T02:12:04.590Z,102465.34
2019-05-13T02:14:34.053Z,102468.57
2019-05-13T02:17:04.250Z,102474.21
2019-05-13T02:19:35.134Z,102472.47
2019-05-13T02:22:04.211Z,102477.06
2019-05-13T02:24:34.187Z,102476.61
2019-05-13T02:27:03.824Z,102482.05
2019-05-13T02:29:34.405Z,102479.16
2019-05-13T02:32:03.297Z,102483.00
2019-05-13T02:34:32.418Z,102478.84
2019-05-13T02:37:03.255Z,102479.34
2019-05-13T02:39:32.914Z,102487.70
2019-05-13T02:42:03.607Z,102484.53
2019-05-13T02:44:33.322Z,102485.65
2019-05-13T02:47:03.359Z,102483.22
2019-05-13T02:49:32.720Z,102478.30
2019-05-13T02:52:02.723Z,102480.36
2019-05-13T02:54:34.305Z,102486.74
2019-05-13T02:57:03.844Z,102488.11
2019-05-13T02:59:33.629Z,102488.03
2019-05-13T03:02:03.608Z,102495.92
2019-05-13T03:04:32.859Z,102493.12
2019-05-13T03:07:03.104Z,102487.77
2019-05-13T03:09:32.466Z,102488.11
2019-05-13T03:12:04.212Z,102484.31
2019-05-13T03:14:32.281Z,102485.02
2019-05-13T03:17:03.444Z,102486.13
2019-05-13T03:19:33.215Z,102488.17
2019-05-13T03:22:03.056Z,102486.41
2019-05-13T03:24:33.098Z,102495.75
2019-05-13T03:27:02.708Z,102493.02
2019-05-13T03:29:32.950Z,102489.47
2019-05-13T03:32:06.543Z,102488.48
2019-05-13T03:34:35.965Z,102493.48
2019-05-13T03:37:06.481Z,102488.83
2019-05-13T03:39:36.380Z,102490.90
2019-05-13T03:42:04.863Z,102490.13
2019-05-13T03:44:33.264Z,102487.67
2019-05-13T03:47:04.316Z,102493.27
2019-05-13T03:49:35.304Z,102489.73
2019-05-13T03:52:03.923Z,102492.50
2019-05-13T03:54:33.142Z,102491.13
2019-05-13T03:57:03.492Z,102494.42
2019-05-13T03:59:33.250Z,102502.23
2019-05-13T04:02:03.014Z,102505.01
2019-05-13T04:04:32.608Z,102505.81
2019-05-13T04:07:02.598Z,102518.67
2019-05-13T04:09:36.067Z,102532.55
2019-05-13T04:12:03.156Z,102533.96
2019-05-13T04:14:33.403Z,102535.55
2019-05-13T04:17:03.143Z,102538.31
2019-05-13T04:19:33.873Z,102533.66
2019-05-13T04:22:03.062Z,102541.47
2019-05-13T04:24:33.473Z,102543.14
2019-05-13T04:27:03.070Z,102548.12
2019-05-13T04:29:33.173Z,102545.23
2019-05-13T04:32:02.501Z,102548.89
2019-05-13T04:34:33.667Z,102540.02
2019-05-13T04:37:02.397Z,102545.39
2019-05-13T04:39:41.791Z,102541.50
2019-05-13T04:42:02.402Z,102551.92
2019-05-13T04:44:32.372Z,102552.74
2019-05-13T04:47:03.605Z,102556.19
2019-05-13T04:49:32.505Z,102555.50
2019-05-13T04:52:03.438Z,102558.50
2019-05-13T04:54:33.053Z,102563.67
2019-05-13T04:57:02.982Z,102561.91
2019-05-13T04:59:33.981Z,102568.61
2019-05-13T05:02:13.229Z,102569.88
2019-05-13T05:04:52.235Z,102568.44
2019-05-13T05:07:32.718Z,102562.81
2019-05-13T05:10:21.341Z,102567.17
2019-05-13T05:12:57.703Z,102564.93
2019-05-13T05:15:48.726Z,102562.13
2019-05-13T05:18:36.697Z,102568.30
2019-05-13T05:21:11.919Z,102569.72
2019-05-13T05:24:13.614Z,102560.22
2019-05-13T05:27:03.343Z,102560.81
2019-05-13T05:29:42.196Z,102557.64
2019-05-13T05:32:32.408Z,102570.34
2019-05-13T05:35:38.773Z,102578.18
2019-05-13T05:38:15.598Z,102579.52
2019-05-13T05:40:46.826Z,102584.50
2019-05-13T05:43:17.195Z,102585.22
2019-05-13T05:45:45.656Z,102588.34
2019-05-13T05:48:17.150Z,102587.31
2019-05-13T05:50:47.644Z,102586.17
2019-05-13T05:53:17.757Z,102588.17
2019-05-13T05:55:51.633Z,102589.30
2019-05-13T05:58:22.695Z,102587.08
2019-05-13T06:00:53.072Z,102588.17
2019-05-13T06:03:23.753Z,102589.66
2019-05-13T06:05:55.438Z,102591.11
2019-05-13T06:08:24.110Z,102588.25
2019-05-13T06:10:53.826Z,102593.34
2019-05-13T06:13:22.724Z,102589.66
2019-05-13T06:15:51.504Z,102587.57
2019-05-13T06:18:22.245Z,102586.16
2019-05-13T06:20:51.319Z,102591.84
2019-05-13T06:23:22.202Z,102598.30
2019-05-13T06:25:52.415Z,102587.70
2019-05-13T06:28:21.704Z,102589.96
2019-05-13T06:30:52.031Z,102588.05
2019-05-13T06:33:21.224Z,102575.68
2019-05-13T06:35:51.970Z,102584.69
2019-05-13T06:38:22.511Z,102580.83
2019-05-13T06:41:02.392Z,102580.13
2019-05-13T06:43:21.115Z,102579.12
2019-05-13T06:45:51.408Z,102578.73
2019-05-13T06:48:20.073Z,102578.66
2019-05-13T06:50:48.508Z,102577.69
2019-05-13T06:53:17.055Z,102574.53
2019-05-13T06:55:45.468Z,102576.84
2019-05-13T06:58:13.889Z,102574.52
2019-05-13T07:00:43.002Z,102588.17
2019-05-13T07:03:12.555Z,102575.43
2019-05-13T07:05:42.353Z,102574.39
2019-05-13T07:08:11.957Z,102577.98
2019-05-13T07:10:41.402Z,102579.67
2019-05-13T07:13:11.383Z,102577.36
2019-05-13T07:15:41.715Z,102580.55
2019-05-13T07:18:11.784Z,102575.41
2019-05-13T07:20:42.699Z,102586.62
2019-05-13T07:23:12.209Z,102588.70
2019-05-13T07:25:41.989Z,102582.45
2019-05-13T07:28:12.624Z,102578.06
2019-05-13T07:30:43.353Z,102581.81
2019-05-13T07:33:12.753Z,102579.65
2019-05-13T07:35:44.388Z,102582.30
2019-05-13T07:38:12.374Z,102578.55
2019-05-13T07:40:41.740Z,102581.05
2019-05-13T07:43:12.298Z,102579.23
2019-05-13T07:45:42.335Z,102580.41
2019-05-13T07:48:20.438Z,102578.46
2019-05-13T07:50:53.664Z,102579.33
2019-05-13T07:53:16.405Z,102572.83
2019-05-13T07:55:42.125Z,102569.63
2019-05-13T07:58:11.503Z,102579.22
2019-05-13T08:00:41.969Z,102585.70
2019-05-13T08:03:12.398Z,102592.66
2019-05-13T08:05:41.819Z,102588.08
2019-05-13T08:08:11.732Z,102591.09
2019-05-13T08:10:41.592Z,102596.42
2019-05-13T08:13:11.844Z,102589.85
2019-05-13T08:15:42.143Z,102587.08
2019-05-13T08:18:12.182Z,102593.69
2019-05-13T08:20:41.987Z,102586.11
2019-05-13T08:23:11.737Z,102570.06
2019-05-13T08:25:42.412Z,102570.63
2019-05-13T08:28:12.322Z,102577.75
2019-05-13T08:30:42.623Z,102576.23
2019-05-13T08:33:12.581Z,102576.23
2019-05-13T08:35:41.819Z,102579.06
2019-05-13T08:38:12.056Z,102577.31
2019-05-13T08:40:42.448Z,102573.48
2019-05-13T08:43:12.061Z,102563.08
2019-05-13T08:45:42.256Z,102569.16
2019-05-13T08:48:12.654Z,102561.41
2019-05-13T08:50:41.990Z,102563.70
2019-05-13T08:53:12.165Z,102564.67
2019-05-13T08:55:42.624Z,102554.72
2019-05-13T08:58:12.468Z,102553.30
2019-05-13T09:00:53.179Z,102553.44
2019-05-13T09:03:22.304Z,102550.84
2019-05-13T09:05:52.227Z,102552.72
2019-05-13T09:08:22.449Z,102552.73
2019-05-13T09:10:52.041Z,102553.55
2019-05-13T09:13:22.317Z,102559.28
2019-05-13T09:15:51.832Z,102545.43
2019-05-13T09:18:22.813Z,102542.79
2019-05-13T09:20:52.047Z,102546.99
2019-05-13T09:23:22.233Z,102548.94
2019-05-13T09:25:52.109Z,102544.73
2019-05-13T09:28:21.952Z,102540.84
2019-05-13T09:30:53.073Z,102540.02
2019-05-13T09:33:21.940Z,102532.85
2019-05-13T09:35:53.359Z,102533.04
2019-05-13T09:38:22.163Z,102542.19
2019-05-13T09:40:53.053Z,102537.82
2019-05-13T09:43:22.166Z,102526.58
2019-05-13T09:45:52.311Z,102524.67
2019-05-13T09:48:22.413Z,102531.29
2019-05-13T09:50:51.802Z,102524.17
2019-05-13T09:53:22.286Z,102524.14
2019-05-13T09:55:52.218Z,102519.58
2019-05-13T09:58:22.347Z,102518.24
2019-05-13T10:00:52.476Z,102512.04
2019-05-13T10:03:25.321Z,102511.63
2019-05-13T10:05:51.822Z,102507.17
2019-05-13T10:08:21.954Z,102517.30
2019-05-13T10:10:52.831Z,102504.08
2019-05-13T10:13:23.171Z,102495.77
2019-05-13T10:15:51.258Z,102500.73
2019-05-13T10:18:21.819Z,102495.38
2019-05-13T10:20:57.868Z,102497.61
2019-05-13T10:23:24.112Z,102488.00
2019-05-13T10:25:55.570Z,102499.70
2019-05-13T10:28:25.764Z,102487.66
2019-05-13T10:30:54.328Z,102492.73
2019-05-13T10:33:23.161Z,102501.09
2019-05-13T10:35:52.701Z,102490.98
2019-05-13T10:38:27.042Z,102488.89
2019-05-13T10:40:52.596Z,102488.59
2019-05-13T10:43:30.890Z,102492.27
2019-05-13T10:45:52.253Z,102484.60
2019-05-13T10:48:21.977Z,102487.98
2019-05-13T10:50:52.903Z,102488.87
2019-05-13T10:53:22.176Z,102487.01
2019-05-13T10:55:52.195Z,102470.58
2019-05-13T10:58:23.267Z,102473.44
2019-05-13T11:00:53.495Z,102476.56
2019-05-13T11:03:23.188Z,102469.08
2019-05-13T11:05:52.889Z,102464.19
2019-05-13T11:08:22.430Z,102454.39
2019-05-13T11:10:53.109Z,102459.78
2019-05-13T11:13:23.563Z,102457.27
2019-05-13T11:15:57.798Z,102456.92
2019-05-13T11:18:24.460Z,102446.20
2019-05-13T11:20:53.511Z,102455.31
2019-05-13T11:23:23.303Z,102451.60
2019-05-13T11:25:52.457Z,102450.98
2019-05-13T11:28:21.117Z,102440.66
2019-05-13T11:30:52.086Z,102434.63
2019-05-13T11:33:21.533Z,102429.83
2019-05-13T11:35:52.407Z,102430.47
2019-05-13T11:38:22.115Z,102428.59
2019-05-13T11:40:52.398Z,102426.00
2019-05-13T11:43:21.470Z,102423.65
2019-05-13T11:45:50.980Z,102418.78
2019-05-13T11:48:23.188Z,102421.86
2019-05-13T11:50:53.740Z,102430.13
2019-05-13T11:53:32.714Z,102422.93
2019-05-13T11:55:52.306Z,102421.40
2019-05-13T11:58:20.943Z,102430.95
2019-05-13T12:00:55.543Z,102421.38
2019-05-13T12:03:24.328Z,102417.88
2019-05-13T12:08:23.228Z,102409.83
2019-05-13T12:10:52.470Z,102422.84
2019-05-13T12:13:23.557Z,102415.09
2019-05-13T12:15:54.475Z,102418.98
2019-05-13T12:18:23.580Z,102413.47
2019-05-13T12:20:54.039Z,102410.16
2019-05-13T12:23:22.651Z,102400.00
2019-05-13T12:28:21.321Z,102399.02
2019-05-13T12:30:52.809Z,102395.94
2019-05-13T12:33:22.665Z,102389.61
2019-05-13T12:35:53.019Z,102381.98
2019-05-13T12:38:22.594Z,102377.16
2019-05-13T12:40:52.865Z,102380.50
2019-05-13T12:43:24.047Z,102375.02
2019-05-13T12:45:53.371Z,102377.34
2019-05-13T12:48:22.890Z,102367.53
2019-05-13T12:50:53.938Z,102367.80
2019-05-13T12:53:22.861Z,102358.63
2019-05-13T12:55:55.784Z,102360.88
2019-05-13T12:58:23.784Z,102352.42
2019-05-13T13:00:53.280Z,102351.27
2019-05-13T13:03:23.226Z,102344.73
2019-05-13T13:05:52.139Z,102358.27
2019-05-13T13:08:38.352Z,102350.80
2019-05-13T13:10:53.330Z,102350.75
2019-05-13T13:13:23.164Z,102352.00
2019-05-13T13:15:52.772Z,102355.89
2019-05-13T13:18:22.408Z,102343.72
2019-05-13T13:20:57.978Z,102341.62
2019-05-13T13:23:23.536Z,102352.40
2019-05-13T13:25:57.001Z,102346.59
2019-05-13T13:28:24.344Z,102341.05
2019-05-13T13:30:53.392Z,102343.80
2019-05-13T13:33:22.291Z,102339.91
2019-05-13T13:35:58.802Z,102333.77
2019-05-13T13:38:25.322Z,102333.97
2019-05-13T13:40:53.747Z,102324.91
2019-05-13T13:43:24.753Z,102331.63
2019-05-13T13:46:07.712Z,102340.39
2019-05-13T13:48:25.556Z,102325.36
2019-05-13T13:50:55.981Z,102326.19
2019-05-13T13:53:26.031Z,102320.79
2019-05-13T13:55:55.971Z,102323.23
2019-05-13T13:58:25.446Z,102318.97
2019-05-13T14:01:05.651Z,102310.75
2019-05-13T14:03:23.478Z,102311.60
2019-05-13T14:05:53.574Z,102316.84
2019-05-13T14:06:31.860Z,102408.98
2019-05-13T14:06:32.947Z,102399.67
2019-05-13T14:08:22.381Z,102317.20
2019-05-13T14:10:51.485Z,102310.18
2019-05-13T14:13:21.848Z,102312.13
2019-05-13T14:15:52.823Z,102303.77
2019-05-13T14:18:26.325Z,102304.25
2019-05-13T14:20:52.868Z,102300.20
2019-05-13T14:23:21.563Z,102288.91
2019-05-13T14:25:52.147Z,102296.88
2019-05-13T14:28:22.951Z,102295.92
2019-05-13T14:30:53.150Z,102294.37
2019-05-13T14:33:21.625Z,102298.66
2019-05-13T14:35:50.057Z,102301.49
2019-05-13T14:38:18.563Z,102303.66
2019-05-13T14:40:47.317Z,102287.95
2019-05-13T14:43:16.027Z,102287.70
2019-05-13T14:45:47.845Z,102278.99
2019-05-13T14:48:16.288Z,102278.11
2019-05-13T14:50:44.771Z,102278.39
2019-05-13T14:53:13.155Z,102279.70
2019-05-13T14:55:42.003Z,102286.14
2019-05-13T14:58:11.045Z,102272.14
2019-05-13T15:00:42.150Z,102266.33
2019-05-13T15:03:13.024Z,102275.21
2019-05-13T15:05:43.230Z,102274.27
2019-05-13T15:08:11.601Z,102263.28
2019-05-13T15:10:41.963Z,102278.72
2019-05-13T15:13:10.462Z,102274.39
2019-05-13T15:15:38.908Z,102273.42
2019-05-13T15:18:07.357Z,102275.97
2019-05-13T15:20:35.910Z,102279.51
2019-05-13T15:23:04.402Z,102279.35
2019-05-13T15:25:33.183Z,102271.91
2019-05-13T15:28:02.933Z,102271.20
2019-05-13T15:30:31.748Z,102272.40
2019-05-13T15:33:01.761Z,102269.78
2019-05-13T15:35:32.114Z,102262.45
2019-05-13T15:38:01.382Z,102273.02
2019-05-13T15:40:31.206Z,102262.45
2019-05-13T15:43:02.219Z,102268.28
2019-05-13T15:45:31.910Z,102269.63
2019-05-13T15:48:02.210Z,102269.09
2019-05-13T15:50:31.863Z,102261.73
2019-05-13T15:53:02.909Z,102255.74
2019-05-13T15:55:30.585Z,102256.23
2019-05-13T15:57:59.121Z,102254.62
2019-05-13T16:00:27.547Z,102245.53
2019-05-13T16:02:55.995Z,102244.84
2019-05-13T16:05:24.421Z,102247.52
2019-05-13T16:07:52.903Z,102249.84
2019-05-13T16:10:21.356Z,102246.81
2019-05-13T16:12:51.790Z,102245.48
2019-05-13T16:15:21.749Z,102245.21
2019-05-13T16:17:52.124Z,102243.34
2019-05-13T16:20:21.350Z,102240.18
2019-05-13T16:22:52.679Z,102244.53
2019-05-13T16:25:21.307Z,102240.61
2019-05-13T16:27:51.900Z,102242.17
2019-05-13T16:30:22.279Z,102244.40
2019-05-13T16:32:52.137Z,102246.33
2019-05-13T16:35:21.514Z,102242.44
2019-05-13T16:37:50.427Z,102243.11
2019-05-13T16:40:19.191Z,102241.68
2019-05-13T16:42:47.635Z,102233.45
2019-05-13T16:45:16.766Z,102242.02
2019-05-13T16:47:58.263Z,102237.13
2019-05-13T16:50:17.249Z,102234.91
2019-05-13T16:52:45.760Z,102234.96
2019-05-13T16:55:14.703Z,102232.39
2019-05-13T16:57:43.211Z,102234.94
2019-05-13T17:00:12.369Z,102234.66
2019-05-13T17:02:42.108Z,102234.41
2019-05-13T17:05:12.206Z,102234.59
2019-05-13T17:07:42.187Z,102234.96
2019-05-13T17:10:12.501Z,102232.19
2019-05-13T17:12:42.940Z,102228.28
2019-05-13T17:15:12.394Z,102232.39
2019-05-13T17:17:41.182Z,102235.97
2019-05-13T17:20:12.531Z,102229.87
2019-05-13T17:22:42.402Z,102237.93
2019-05-13T17:25:12.600Z,102242.98
2019-05-13T17:27:41.334Z,102234.72
2019-05-13T17:30:11.714Z,102231.58
2019-05-13T17:32:40.156Z,102238.09
2019-05-13T17:35:11.463Z,102231.62
2019-05-13T17:37:39.409Z,102231.36
2019-05-13T17:40:08.275Z,102229.44
2019-05-13T17:42:36.696Z,102232.97
2019-05-13T17:45:08.298Z,102237.06
2019-05-13T17:47:36.704Z,102235.87
2019-05-13T17:50:06.483Z,102229.39
2019-05-13T17:52:35.023Z,102232.39
2019-05-13T17:55:04.349Z,102245.50
2019-05-13T17:57:32.849Z,102234.09
2019-05-13T18:00:01.263Z,102238.81
2019-05-13T18:02:31.401Z,102247.39
2019-05-13T18:05:02.113Z,102238.52
2019-05-13T18:07:32.155Z,102248.66
2019-05-13T18:10:01.575Z,102250.85
2019-05-13T18:12:30.051Z,102253.80
2019-05-13T18:14:58.613Z,102247.37
2019-05-13T18:17:27.024Z,102251.00
2019-05-13T18:19:55.655Z,102244.10
2019-05-13T18:22:24.059Z,102246.64
2019-05-13T18:24:52.488Z,102243.83
2019-05-13T18:27:22.153Z,102241.87
2019-05-13T18:29:51.344Z,102242.17
2019-05-13T18:32:21.429Z,102239.08
2019-05-13T18:34:50.059Z,102237.91
2019-05-13T18:37:18.494Z,102237.62
2019-05-13T18:39:46.972Z,102233.09
2019-05-13T18:42:15.460Z,102228.36
2019-05-13T18:44:43.965Z,102232.63
2019-05-13T18:47:12.499Z,102231.16
2019-05-13T18:49:42.283Z,102230.37
2019-05-13T18:52:11.796Z,102230.52
2019-05-13T18:54:42.146Z,102236.70
2019-05-13T18:57:12.211Z,102241.75
2019-05-13T18:59:41.565Z,102250.22
2019-05-13T19:02:12.203Z,102250.42
2019-05-13T19:04:41.764Z,102261.44
2019-05-13T19:07:10.609Z,102255.55
2019-05-13T19:09:39.006Z,102254.67
2019-05-13T19:12:07.488Z,102256.98
2019-05-13T19:14:35.923Z,102256.75
2019-05-13T19:17:04.476Z,102256.94
2019-05-13T19:19:32.889Z,102258.98
2019-05-13T19:22:02.163Z,102262.41
2019-05-13T19:24:31.324Z,102253.67
2019-05-13T19:27:01.691Z,102259.98
2019-05-13T19:29:31.771Z,102261.31
2019-05-13T19:32:01.776Z,102262.15
2019-05-13T19:34:32.266Z,102261.06
2019-05-13T19:37:02.330Z,102262.47
2019-05-13T19:39:31.324Z,102263.67
2019-05-13T19:41:59.739Z,102263.06
2019-05-13T19:44:28.181Z,102263.14
2019-05-13T19:46:56.720Z,102266.11
2019-05-13T19:49:32.625Z,102267.23
2019-05-13T19:51:55.345Z,102263.00
2019-05-13T19:54:23.978Z,102265.30
2019-05-13T19:56:52.534Z,102263.30
2019-05-13T19:59:42.487Z,102261.59
2019-05-13T20:02:12.218Z,102259.53
2019-05-13T20:04:41.391Z,102259.58
2019-05-13T20:07:11.885Z,102257.13
2019-05-13T20:09:42.525Z,102257.66
2019-05-13T20:12:11.225Z,102266.27
2019-05-13T20:14:39.734Z,102260.97
2019-05-13T20:17:08.295Z,102257.33
2019-05-13T20:19:47.586Z,102259.44
2019-05-13T20:22:06.874Z,102255.43
2019-05-13T20:24:35.316Z,102258.38
2019-05-13T20:27:05.345Z,102256.95
2019-05-13T20:29:33.796Z,102254.77
2019-05-13T20:32:02.237Z,102256.74
2019-05-13T20:34:31.677Z,102262.80
2019-05-13T20:37:02.541Z,102248.02
2019-05-13T20:39:31.899Z,102260.28
2019-05-13T20:42:01.605Z,102262.45
2019-05-13T20:44:31.298Z,102258.45
2019-05-13T20:47:01.704Z,102255.98
2019-05-13T20:49:31.138Z,102259.48
2019-05-13T20:51:59.902Z,102263.25
2019-05-13T20:54:28.363Z,102264.82
2019-05-13T20:56:56.808Z,102255.61
2019-05-13T20:59:27.966Z,102258.64
2019-05-13T21:01:56.393Z,102255.50
2019-05-13T21:04:24.842Z,102254.66
2019-05-13T21:06:53.249Z,102253.95
2019-05-13T21:09:21.878Z,102254.78
2019-05-13T21:11:51.535Z,102252.73
2019-05-13T21:14:21.567Z,102254.17
2019-05-13T21:16:50.196Z,102251.03
2019-05-13T21:19:18.613Z,102255.17
2019-05-13T21:21:51.108Z,102256.39
2019-05-13T21:24:21.352Z,102259.28
2019-05-13T21:26:51.247Z,102256.84
2019-05-13T21:29:21.597Z,102261.59
2019-05-13T21:31:49.964Z,102260.27
2019-05-13T21:34:18.472Z,102261.32
2019-05-13T21:36:46.930Z,102256.95
2019-05-13T21:39:15.511Z,102260.22
2019-05-13T21:41:43.943Z,102259.26
2019-05-13T21:44:12.484Z,102259.73
2019-05-13T21:46:41.693Z,102264.23
2019-05-13T21:49:11.909Z,102265.30
2019-05-13T21:51:42.156Z,102266.75
2019-05-13T21:54:11.753Z,102266.99
2019-05-13T21:56:42.443Z,102267.59
2019-05-13T21:59:10.716Z,102271.69
2019-05-13T22:01:42.078Z,102266.51
2019-05-13T22:04:09.466Z,102271.22
2019-05-13T22:06:37.959Z,102264.42
2019-05-13T22:09:08.887Z,102272.15
2019-05-13T22:11:37.556Z,102273.11
2019-05-13T22:14:06.323Z,102267.90
2019-05-13T22:16:34.732Z,102267.78
2019-05-13T22:19:03.166Z,102260.17
2019-05-13T22:21:31.853Z,102264.16
2019-05-13T22:24:02.243Z,102256.66
2019-05-13T22:26:31.199Z,102255.92
2019-05-13T22:28:59.731Z,102249.52
2019-05-13T22:31:31.142Z,102260.03
2019-05-13T22:34:01.434Z,102248.42
2019-05-13T22:36:31.797Z,102246.83
2019-05-13T22:39:02.092Z,102246.72
2019-05-13T22:41:31.282Z,102243.91
2019-05-13T22:43:59.808Z,102246.57
2019-05-13T22:46:28.264Z,102251.16
2019-05-13T22:48:56.682Z,102244.61
2019-05-13T22:51:25.318Z,102248.16
2019-05-13T22:53:53.746Z,102244.72
2019-05-13T22:56:22.394Z,102249.02
2019-05-13T22:58:51.632Z,102244.03
2019-05-13T23:01:21.872Z,102244.87
2019-05-13T23:03:51.511Z,102243.66
2019-05-13T23:06:22.848Z,102237.75
2019-05-13T23:08:51.371Z,102237.80
2019-05-13T23:11:21.783Z,102236.57
2019-05-13T23:13:51.321Z,102240.04
2019-05-13T23:16:22.093Z,102243.59
2019-05-13T23:18:51.339Z,102242.78
2019-05-13T23:21:20.241Z,102240.70
2019-05-13T23:23:48.653Z,102238.73
2019-05-13T23:26:17.160Z,102230.64
2019-05-13T23:28:45.602Z,102228.14
2019-05-13T23:31:14.040Z,102233.46
2019-05-13T23:33:42.493Z,102229.89
2019-05-13T23:36:11.975Z,102226.86
2019-05-13T23:38:41.418Z,102223.36
2019-05-13T23:41:11.516Z,102222.20
2019-05-13T23:43:40.071Z,102226.08
2019-05-13T23:46:11.813Z,102222.77
2019-05-13T23:48:41.307Z,102214.81
2019-05-13T23:51:09.845Z,102213.30
2019-05-13T23:53:38.271Z,102213.21
2019-05-13T23:56:06.718Z,102208.47
2019-05-13T23:58:35.174Z,102202.83
